sensor_id;sensor_type;location;lat;lon;timestamp;P1;durP1;ratioP1;P2;durP2;ratioP2
7013;SDS011;3547;50.774;12.918;2023-09-12T00:01:25;5.97;;;4.07;;
7013;SDS011;3547;50.774;12.918;2023-09-12T00:03:51;4.50;;;4.05;;
7013;SDS011;3547;50.774;12.918;2023-09-12T00:06:17;6.30;;;4.03;;
7013;SDS011;3547;50.774;12.918;2023-09-12T00:08:43;5.68;;;4.85;;
7013;SDS011;3547;50.774;12.918;2023-09-12T00:11:10;5.10;;;3.92;;
7013;SDS011;3547;50.774;12.918;2023-09-12T00:13:37;5.20;;;4.38;;
7013;SDS011;3547;50.774;12.918;2023-09-12T00:16:04;6.57;;;4.20;;
7013;SDS011;3547;50.774;12.918;2023-09-12T00:18:31;4.78;;;4.25;;
7013;SDS011;3547;50.774;12.918;2023-09-12T00:21:00;4.82;;;4.32;;
7013;SDS011;3547;50.774;12.918;2023-09-12T00:23:26;6.90;;;4.72;;
7013;SDS011;3547;50.774;12.918;2023-09-12T00:25:53;7.97;;;4.22;;
7013;SDS011;3547;50.774;12.918;2023-09-12T00:28:19;6.28;;;3.70;;
7013;SDS011;3547;50.774;12.918;2023-09-12T00:30:46;3.58;;;3.28;;
7013;SDS011;3547;50.774;12.918;2023-09-12T00:33:12;4.30;;;3.90;;
7013;SDS011;3547;50.774;12.918;2023-09-12T00:35:38;5.00;;;3.70;;
7013;SDS011;3547;50.774;12.918;2023-09-12T00:38:04;5.93;;;3.78;;
7013;SDS011;3547;50.774;12.918;2023-09-12T00:40:32;4.97;;;4.10;;
7013;SDS011;3547;50.774;12.918;2023-09-12T00:42:58;6.97;;;3.92;;
7013;SDS011;3547;50.774;12.918;2023-09-12T00:45:24;4.85;;;3.53;;
7013;SDS011;3547;50.774;12.918;2023-09-12T00:47:51;5.47;;;4.10;;
7013;SDS011;3547;50.774;12.918;2023-09-12T00:50:18;7.72;;;3.90;;
7013;SDS011;3547;50.774;12.918;2023-09-12T00:52:46;5.95;;;3.90;;
7013;SDS011;3547;50.774;12.918;2023-09-12T00:55:13;6.35;;;4.00;;
7013;SDS011;3547;50.774;12.918;2023-09-12T00:57:40;4.88;;;3.90;;
7013;SDS011;3547;50.774;12.918;2023-09-12T01:00:07;4.60;;;3.88;;
7013;SDS011;3547;50.774;12.918;2023-09-12T01:02:42;4.65;;;3.80;;
7013;SDS011;3547;50.774;12.918;2023-09-12T01:05:10;5.68;;;4.22;;
7013;SDS011;3547;50.774;12.918;2023-09-12T01:07:37;4.85;;;4.00;;
7013;SDS011;3547;50.774;12.918;2023-09-12T01:10:05;5.60;;;4.13;;
7013;SDS011;3547;50.774;12.918;2023-09-12T01:12:32;4.30;;;3.90;;
7013;SDS011;3547;50.774;12.918;2023-09-12T01:14:58;3.63;;;3.33;;
7013;SDS011;3547;50.774;12.918;2023-09-12T01:17:24;7.65;;;4.20;;
7013;SDS011;3547;50.774;12.918;2023-09-12T01:19:52;4.63;;;4.18;;
7013;SDS011;3547;50.774;12.918;2023-09-12T01:27:41;6.82;;;3.70;;
7013;SDS011;3547;50.774;12.918;2023-09-12T01:30:15;4.38;;;3.63;;
7013;SDS011;3547;50.774;12.918;2023-09-12T01:32:42;5.70;;;4.05;;
7013;SDS011;3547;50.774;12.918;2023-09-12T01:35:09;6.43;;;4.10;;
7013;SDS011;3547;50.774;12.918;2023-09-12T01:37:35;6.68;;;4.40;;
7013;SDS011;3547;50.774;12.918;2023-09-12T01:40:02;4.95;;;4.13;;
7013;SDS011;3547;50.774;12.918;2023-09-12T01:42:34;4.50;;;3.60;;
7013;SDS011;3547;50.774;12.918;2023-09-12T01:45:09;6.38;;;3.80;;
7013;SDS011;3547;50.774;12.918;2023-09-12T01:47:37;7.35;;;4.13;;
7013;SDS011;3547;50.774;12.918;2023-09-12T01:50:05;5.25;;;3.83;;
7013;SDS011;3547;50.774;12.918;2023-09-12T01:52:34;4.03;;;3.67;;
7013;SDS011;3547;50.774;12.918;2023-09-12T01:55:01;5.25;;;3.92;;
7013;SDS011;3547;50.774;12.918;2023-09-12T01:57:28;5.60;;;4.05;;
7013;SDS011;3547;50.774;12.918;2023-09-12T01:59:54;8.68;;;4.13;;
7013;SDS011;3547;50.774;12.918;2023-09-12T02:02:21;6.15;;;4.47;;
7013;SDS011;3547;50.774;12.918;2023-09-12T02:07:35;4.57;;;4.07;;
7013;SDS011;3547;50.774;12.918;2023-09-12T02:10:03;7.03;;;4.10;;
7013;SDS011;3547;50.774;12.918;2023-09-12T02:12:31;4.53;;;3.83;;
7013;SDS011;3547;50.774;12.918;2023-09-12T02:14:57;5.45;;;3.95;;
7013;SDS011;3547;50.774;12.918;2023-09-12T02:17:23;4.97;;;3.88;;
7013;SDS011;3547;50.774;12.918;2023-09-12T02:19:50;4.88;;;3.65;;
7013;SDS011;3547;50.774;12.918;2023-09-12T02:22:16;5.88;;;3.95;;
7013;SDS011;3547;50.774;12.918;2023-09-12T02:24:42;4.35;;;3.72;;
7013;SDS011;3547;50.774;12.918;2023-09-12T02:27:08;4.47;;;4.03;;
7013;SDS011;3547;50.774;12.918;2023-09-12T02:29:34;3.75;;;3.35;;
7013;SDS011;3547;50.774;12.918;2023-09-12T02:32:01;4.90;;;3.83;;
7013;SDS011;3547;50.774;12.918;2023-09-12T02:34:27;4.18;;;3.13;;
7013;SDS011;3547;50.774;12.918;2023-09-12T02:43:32;7.43;;;3.83;;
7013;SDS011;3547;50.774;12.918;2023-09-12T02:45:58;5.07;;;3.85;;
7013;SDS011;3547;50.774;12.918;2023-09-12T02:48:25;4.65;;;4.05;;
7013;SDS011;3547;50.774;12.918;2023-09-12T02:50:51;4.85;;;3.90;;
7013;SDS011;3547;50.774;12.918;2023-09-12T02:53:17;5.75;;;3.80;;
7013;SDS011;3547;50.774;12.918;2023-09-12T02:55:43;4.88;;;3.75;;
7013;SDS011;3547;50.774;12.918;2023-09-12T02:58:09;5.40;;;4.22;;
7013;SDS011;3547;50.774;12.918;2023-09-12T03:00:39;6.13;;;4.10;;
7013;SDS011;3547;50.774;12.918;2023-09-12T03:03:08;5.20;;;4.25;;
7013;SDS011;3547;50.774;12.918;2023-09-12T03:05:35;4.82;;;4.30;;
7013;SDS011;3547;50.774;12.918;2023-09-12T03:08:01;6.50;;;3.90;;
7013;SDS011;3547;50.774;12.918;2023-09-12T03:10:29;7.80;;;5.05;;
7013;SDS011;3547;50.774;12.918;2023-09-12T03:12:55;5.88;;;3.83;;
7013;SDS011;3547;50.774;12.918;2023-09-12T03:15:21;5.07;;;4.18;;
7013;SDS011;3547;50.774;12.918;2023-09-12T03:17:47;4.68;;;4.03;;
7013;SDS011;3547;50.774;12.918;2023-09-12T03:20:13;4.95;;;4.28;;
7013;SDS011;3547;50.774;12.918;2023-09-12T03:22:39;5.25;;;4.10;;
7013;SDS011;3547;50.774;12.918;2023-09-12T03:25:06;4.28;;;3.88;;
7013;SDS011;3547;50.774;12.918;2023-09-12T03:27:32;4.95;;;3.33;;
7013;SDS011;3547;50.774;12.918;2023-09-12T03:29:59;8.25;;;4.30;;
7013;SDS011;3547;50.774;12.918;2023-09-12T03:32:25;5.00;;;3.75;;
7013;SDS011;3547;50.774;12.918;2023-09-12T03:34:51;5.97;;;4.35;;
7013;SDS011;3547;50.774;12.918;2023-09-12T03:37:17;4.25;;;3.80;;
7013;SDS011;3547;50.774;12.918;2023-09-12T03:39:44;4.22;;;3.78;;
7013;SDS011;3547;50.774;12.918;2023-09-12T03:42:10;6.15;;;3.67;;
7013;SDS011;3547;50.774;12.918;2023-09-12T03:44:36;4.93;;;3.92;;
7013;SDS011;3547;50.774;12.918;2023-09-12T03:47:02;5.32;;;4.15;;
7013;SDS011;3547;50.774;12.918;2023-09-12T03:49:28;5.25;;;4.18;;
7013;SDS011;3547;50.774;12.918;2023-09-12T03:51:55;6.53;;;3.88;;
7013;SDS011;3547;50.774;12.918;2023-09-12T03:54:21;3.90;;;3.33;;
7013;SDS011;3547;50.774;12.918;2023-09-12T03:56:47;6.45;;;4.07;;
7013;SDS011;3547;50.774;12.918;2023-09-12T03:59:13;6.18;;;3.63;;
7013;SDS011;3547;50.774;12.918;2023-09-12T04:01:39;4.97;;;4.05;;
7013;SDS011;3547;50.774;12.918;2023-09-12T04:04:05;4.25;;;3.70;;
7013;SDS011;3547;50.774;12.918;2023-09-12T04:06:31;3.83;;;3.53;;
7013;SDS011;3547;50.774;12.918;2023-09-12T04:08:57;4.68;;;3.88;;
7013;SDS011;3547;50.774;12.918;2023-09-12T04:11:24;7.93;;;4.30;;
7013;SDS011;3547;50.774;12.918;2023-09-12T04:13:50;6.75;;;3.88;;
7013;SDS011;3547;50.774;12.918;2023-09-12T04:16:16;5.50;;;4.13;;
7013;SDS011;3547;50.774;12.918;2023-09-12T04:22:05;4.50;;;3.95;;
7013;SDS011;3547;50.774;12.918;2023-09-12T04:24:34;4.75;;;3.80;;
7013;SDS011;3547;50.774;12.918;2023-09-12T04:27:00;4.30;;;3.25;;
7013;SDS011;3547;50.774;12.918;2023-09-12T04:29:29;5.20;;;4.30;;
7013;SDS011;3547;50.774;12.918;2023-09-12T04:31:57;5.60;;;3.95;;
7013;SDS011;3547;50.774;12.918;2023-09-12T04:34:25;4.50;;;3.90;;
7013;SDS011;3547;50.774;12.918;2023-09-12T04:36:52;4.90;;;3.97;;
7013;SDS011;3547;50.774;12.918;2023-09-12T04:39:18;5.28;;;4.25;;
7013;SDS011;3547;50.774;12.918;2023-09-12T04:41:45;6.07;;;4.18;;
7013;SDS011;3547;50.774;12.918;2023-09-12T04:44:11;4.22;;;3.83;;
7013;SDS011;3547;50.774;12.918;2023-09-12T04:46:38;4.82;;;3.90;;
7013;SDS011;3547;50.774;12.918;2023-09-12T04:49:04;4.72;;;3.95;;
7013;SDS011;3547;50.774;12.918;2023-09-12T04:51:30;4.80;;;3.63;;
7013;SDS011;3547;50.774;12.918;2023-09-12T04:53:56;4.90;;;4.28;;
7013;SDS011;3547;50.774;12.918;2023-09-12T04:56:22;4.60;;;3.75;;
7013;SDS011;3547;50.774;12.918;2023-09-12T04:58:50;7.97;;;3.95;;
7013;SDS011;3547;50.774;12.918;2023-09-12T05:01:16;5.15;;;3.92;;
7013;SDS011;3547;50.774;12.918;2023-09-12T05:03:42;6.60;;;3.92;;
7013;SDS011;3547;50.774;12.918;2023-09-12T05:06:09;6.05;;;4.72;;
7013;SDS011;3547;50.774;12.918;2023-09-12T05:08:36;4.45;;;3.80;;
7013;SDS011;3547;50.774;12.918;2023-09-12T05:11:02;4.07;;;3.55;;
7013;SDS011;3547;50.774;12.918;2023-09-12T05:13:29;4.45;;;3.78;;
7013;SDS011;3547;50.774;12.918;2023-09-12T05:15:55;4.90;;;3.63;;
7013;SDS011;3547;50.774;12.918;2023-09-12T05:18:22;4.72;;;3.42;;
7013;SDS011;3547;50.774;12.918;2023-09-12T05:20:48;3.95;;;3.55;;
7013;SDS011;3547;50.774;12.918;2023-09-12T05:23:15;4.57;;;4.10;;
7013;SDS011;3547;50.774;12.918;2023-09-12T05:25:41;4.63;;;3.75;;
7013;SDS011;3547;50.774;12.918;2023-09-12T05:28:07;4.63;;;3.80;;
7013;SDS011;3547;50.774;12.918;2023-09-12T05:30:33;8.75;;;3.53;;
7013;SDS011;3547;50.774;12.918;2023-09-12T05:33:00;4.68;;;3.88;;
7013;SDS011;3547;50.774;12.918;2023-09-12T05:35:27;7.15;;;4.45;;
7013;SDS011;3547;50.774;12.918;2023-09-12T05:37:53;5.22;;;3.85;;
7013;SDS011;3547;50.774;12.918;2023-09-12T05:40:20;8.18;;;4.30;;
7013;SDS011;3547;50.774;12.918;2023-09-12T05:42:47;4.60;;;3.90;;
7013;SDS011;3547;50.774;12.918;2023-09-12T05:45:13;8.48;;;4.10;;
7013;SDS011;3547;50.774;12.918;2023-09-12T05:47:39;5.38;;;4.28;;
7013;SDS011;3547;50.774;12.918;2023-09-12T05:50:05;5.07;;;4.32;;
7013;SDS011;3547;50.774;12.918;2023-09-12T05:52:32;11.15;;;4.20;;
7013;SDS011;3547;50.774;12.918;2023-09-12T05:54:59;5.53;;;3.55;;
7013;SDS011;3547;50.774;12.918;2023-09-12T05:57:25;4.35;;;3.83;;
7013;SDS011;3547;50.774;12.918;2023-09-12T05:59:51;6.50;;;4.65;;
7013;SDS011;3547;50.774;12.918;2023-09-12T06:02:17;5.03;;;3.92;;
7013;SDS011;3547;50.774;12.918;2023-09-12T06:04:43;6.43;;;3.90;;
7013;SDS011;3547;50.774;12.918;2023-09-12T06:07:10;5.50;;;4.30;;
7013;SDS011;3547;50.774;12.918;2023-09-12T06:09:36;6.15;;;3.58;;
7013;SDS011;3547;50.774;12.918;2023-09-12T06:12:03;6.75;;;4.60;;
7013;SDS011;3547;50.774;12.918;2023-09-12T06:14:29;5.05;;;4.15;;
7013;SDS011;3547;50.774;12.918;2023-09-12T06:20:34;5.45;;;3.97;;
7013;SDS011;3547;50.774;12.918;2023-09-12T06:23:00;7.68;;;4.03;;
7013;SDS011;3547;50.774;12.918;2023-09-12T06:25:27;4.82;;;4.00;;
7013;SDS011;3547;50.774;12.918;2023-09-12T06:27:54;9.20;;;4.57;;
7013;SDS011;3547;50.774;12.918;2023-09-12T06:30:20;6.10;;;4.65;;
7013;SDS011;3547;50.774;12.918;2023-09-12T06:32:46;6.00;;;4.30;;
7013;SDS011;3547;50.774;12.918;2023-09-12T06:35:13;4.85;;;4.30;;
7013;SDS011;3547;50.774;12.918;2023-09-12T06:37:39;9.13;;;4.80;;
7013;SDS011;3547;50.774;12.918;2023-09-12T06:40:06;6.22;;;4.90;;
7013;SDS011;3547;50.774;12.918;2023-09-12T06:42:33;9.38;;;4.90;;
7013;SDS011;3547;50.774;12.918;2023-09-12T06:44:59;19.00;;;4.90;;
7013;SDS011;3547;50.774;12.918;2023-09-12T06:47:25;5.10;;;4.38;;
7013;SDS011;3547;50.774;12.918;2023-09-12T06:49:51;8.32;;;4.93;;
7013;SDS011;3547;50.774;12.918;2023-09-12T06:52:17;8.45;;;5.00;;
7013;SDS011;3547;50.774;12.918;2023-09-12T06:54:43;7.82;;;4.70;;
7013;SDS011;3547;50.774;12.918;2023-09-12T06:57:09;5.53;;;4.68;;
7013;SDS011;3547;50.774;12.918;2023-09-12T06:59:36;9.23;;;4.43;;
7013;SDS011;3547;50.774;12.918;2023-09-12T07:02:02;6.75;;;4.63;;
7013;SDS011;3547;50.774;12.918;2023-09-12T07:04:29;10.93;;;4.10;;
7013;SDS011;3547;50.774;12.918;2023-09-12T07:06:55;11.05;;;4.63;;
7013;SDS011;3547;50.774;12.918;2023-09-12T07:09:23;8.27;;;4.40;;
7013;SDS011;3547;50.774;12.918;2023-09-12T07:11:49;5.60;;;4.25;;
7013;SDS011;3547;50.774;12.918;2023-09-12T07:14:15;9.38;;;5.00;;
7013;SDS011;3547;50.774;12.918;2023-09-12T07:16:41;7.80;;;4.18;;
7013;SDS011;3547;50.774;12.918;2023-09-12T07:19:07;5.50;;;4.22;;
7013;SDS011;3547;50.774;12.918;2023-09-12T07:21:35;7.03;;;4.32;;
7013;SDS011;3547;50.774;12.918;2023-09-12T07:24:01;8.05;;;4.32;;
7013;SDS011;3547;50.774;12.918;2023-09-12T07:26:27;5.70;;;4.00;;
7013;SDS011;3547;50.774;12.918;2023-09-12T07:28:54;6.68;;;4.13;;
7013;SDS011;3547;50.774;12.918;2023-09-12T07:31:20;4.53;;;3.65;;
7013;SDS011;3547;50.774;12.918;2023-09-12T07:33:46;4.28;;;3.72;;
7013;SDS011;3547;50.774;12.918;2023-09-12T07:36:12;6.95;;;3.45;;
7013;SDS011;3547;50.774;12.918;2023-09-12T07:38:38;4.35;;;3.95;;
7013;SDS011;3547;50.774;12.918;2023-09-12T07:41:04;6.28;;;3.75;;
7013;SDS011;3547;50.774;12.918;2023-09-12T07:43:31;4.22;;;3.83;;
7013;SDS011;3547;50.774;12.918;2023-09-12T07:45:57;9.07;;;3.83;;
7013;SDS011;3547;50.774;12.918;2023-09-12T07:48:24;4.43;;;3.42;;
7013;SDS011;3547;50.774;12.918;2023-09-12T07:50:50;5.53;;;3.78;;
7013;SDS011;3547;50.774;12.918;2023-09-12T07:53:17;4.53;;;3.22;;
7013;SDS011;3547;50.774;12.918;2023-09-12T07:55:43;3.92;;;3.55;;
7013;SDS011;3547;50.774;12.918;2023-09-12T07:58:13;6.97;;;3.85;;
7013;SDS011;3547;50.774;12.918;2023-09-12T08:00:39;5.32;;;4.18;;
7013;SDS011;3547;50.774;12.918;2023-09-12T08:03:06;3.20;;;2.78;;
7013;SDS011;3547;50.774;12.918;2023-09-12T08:05:32;4.38;;;3.50;;
7013;SDS011;3547;50.774;12.918;2023-09-12T08:07:58;5.10;;;3.53;;
7013;SDS011;3547;50.774;12.918;2023-09-12T08:10:24;4.25;;;3.85;;
7013;SDS011;3547;50.774;12.918;2023-09-12T08:12:50;5.43;;;2.88;;
7013;SDS011;3547;50.774;12.918;2023-09-12T08:15:17;4.75;;;3.60;;
7013;SDS011;3547;50.774;12.918;2023-09-12T08:17:43;5.05;;;3.70;;
7013;SDS011;3547;50.774;12.918;2023-09-12T08:20:10;4.80;;;3.38;;
7013;SDS011;3547;50.774;12.918;2023-09-12T08:22:37;9.48;;;3.85;;
7013;SDS011;3547;50.774;12.918;2023-09-12T08:25:03;4.53;;;3.83;;
7013;SDS011;3547;50.774;12.918;2023-09-12T08:27:30;7.95;;;4.38;;
7013;SDS011;3547;50.774;12.918;2023-09-12T08:29:56;5.45;;;3.78;;
7013;SDS011;3547;50.774;12.918;2023-09-12T08:32:22;5.47;;;4.05;;
7013;SDS011;3547;50.774;12.918;2023-09-12T08:34:48;6.30;;;3.63;;
7013;SDS011;3547;50.774;12.918;2023-09-12T08:37:14;3.90;;;3.50;;
7013;SDS011;3547;50.774;12.918;2023-09-12T08:39:44;8.15;;;4.22;;
7013;SDS011;3547;50.774;12.918;2023-09-12T08:42:15;8.93;;;4.45;;
7013;SDS011;3547;50.774;12.918;2023-09-12T08:44:42;6.13;;;3.55;;
7013;SDS011;3547;50.774;12.918;2023-09-12T08:47:09;5.82;;;3.90;;
7013;SDS011;3547;50.774;12.918;2023-09-12T08:49:36;5.50;;;3.47;;
7013;SDS011;3547;50.774;12.918;2023-09-12T08:52:04;3.20;;;2.58;;
7013;SDS011;3547;50.774;12.918;2023-09-12T08:54:31;5.00;;;3.03;;
7013;SDS011;3547;50.774;12.918;2023-09-12T08:56:58;5.75;;;3.15;;
7013;SDS011;3547;50.774;12.918;2023-09-12T08:59:29;4.70;;;3.42;;
7013;SDS011;3547;50.774;12.918;2023-09-12T09:02:00;5.68;;;2.85;;
7013;SDS011;3547;50.774;12.918;2023-09-12T09:04:28;2.85;;;2.47;;
7013;SDS011;3547;50.774;12.918;2023-09-12T09:06:57;3.83;;;2.75;;
7013;SDS011;3547;50.774;12.918;2023-09-12T09:09:25;5.75;;;3.00;;
7013;SDS011;3547;50.774;12.918;2023-09-12T09:11:54;6.10;;;2.92;;
7013;SDS011;3547;50.774;12.918;2023-09-12T09:14:20;6.20;;;2.53;;
7013;SDS011;3547;50.774;12.918;2023-09-12T09:16:46;6.50;;;2.60;;
7013;SDS011;3547;50.774;12.918;2023-09-12T09:19:12;3.30;;;2.70;;
7013;SDS011;3547;50.774;12.918;2023-09-12T09:21:41;9.38;;;3.42;;
7013;SDS011;3547;50.774;12.918;2023-09-12T09:24:07;5.30;;;2.65;;
7013;SDS011;3547;50.774;12.918;2023-09-12T09:26:48;3.47;;;2.90;;
7013;SDS011;3547;50.774;12.918;2023-09-12T09:29:19;5.95;;;2.90;;
7013;SDS011;3547;50.774;12.918;2023-09-12T09:31:47;6.28;;;3.03;;
7013;SDS011;3547;50.774;12.918;2023-09-12T09:34:15;5.43;;;3.58;;
7013;SDS011;3547;50.774;12.918;2023-09-12T09:36:47;9.55;;;3.42;;
7013;SDS011;3547;50.774;12.918;2023-09-12T09:39:18;8.20;;;3.33;;
7013;SDS011;3547;50.774;12.918;2023-09-12T09:41:49;14.65;;;3.83;;
7013;SDS011;3547;50.774;12.918;2023-09-12T09:44:16;4.90;;;3.00;;
7013;SDS011;3547;50.774;12.918;2023-09-12T09:46:43;3.72;;;2.55;;
7013;SDS011;3547;50.774;12.918;2023-09-12T09:49:11;9.85;;;3.80;;
7013;SDS011;3547;50.774;12.918;2023-09-12T09:51:40;3.90;;;2.70;;
7013;SDS011;3547;50.774;12.918;2023-09-12T09:54:08;6.28;;;2.95;;
7013;SDS011;3547;50.774;12.918;2023-09-12T09:56:47;9.48;;;3.13;;
7013;SDS011;3547;50.774;12.918;2023-09-12T09:59:15;5.68;;;3.33;;
7013;SDS011;3547;50.774;12.918;2023-09-12T10:01:47;7.18;;;2.80;;
7013;SDS011;3547;50.774;12.918;2023-09-12T10:04:15;5.90;;;3.05;;
7013;SDS011;3547;50.774;12.918;2023-09-12T10:06:43;5.53;;;2.92;;
7013;SDS011;3547;50.774;12.918;2023-09-12T10:09:10;7.88;;;3.28;;
7013;SDS011;3547;50.774;12.918;2023-09-12T10:11:39;4.93;;;2.60;;
7013;SDS011;3547;50.774;12.918;2023-09-12T10:14:06;7.28;;;3.55;;
7013;SDS011;3547;50.774;12.918;2023-09-12T10:16:34;3.53;;;2.75;;
7013;SDS011;3547;50.774;12.918;2023-09-12T10:21:48;5.47;;;2.85;;
7013;SDS011;3547;50.774;12.918;2023-09-12T10:24:23;6.88;;;3.15;;
7013;SDS011;3547;50.774;12.918;2023-09-12T10:26:52;4.05;;;3.33;;
7013;SDS011;3547;50.774;12.918;2023-09-12T10:29:20;8.68;;;3.40;;
7013;SDS011;3547;50.774;12.918;2023-09-12T10:31:48;4.40;;;2.95;;
7013;SDS011;3547;50.774;12.918;2023-09-12T10:34:15;7.05;;;3.80;;
7013;SDS011;3547;50.774;12.918;2023-09-12T10:36:42;3.42;;;3.08;;
7013;SDS011;3547;50.774;12.918;2023-09-12T10:39:09;4.72;;;3.83;;
7013;SDS011;3547;50.774;12.918;2023-09-12T10:41:40;5.00;;;3.17;;
7013;SDS011;3547;50.774;12.918;2023-09-12T10:44:11;7.00;;;3.17;;
7013;SDS011;3547;50.774;12.918;2023-09-12T10:46:41;5.68;;;3.10;;
7013;SDS011;3547;50.774;12.918;2023-09-12T10:49:09;8.18;;;3.42;;
7013;SDS011;3547;50.774;12.918;2023-09-12T10:51:38;5.15;;;3.08;;
7013;SDS011;3547;50.774;12.918;2023-09-12T10:54:05;7.65;;;3.10;;
7013;SDS011;3547;50.774;12.918;2023-09-12T10:56:34;9.75;;;3.45;;
7013;SDS011;3547;50.774;12.918;2023-09-12T11:02:26;5.35;;;2.83;;
7013;SDS011;3547;50.774;12.918;2023-09-12T11:04:53;10.13;;;3.92;;
7013;SDS011;3547;50.774;12.918;2023-09-12T11:10:41;5.18;;;3.15;;
7013;SDS011;3547;50.774;12.918;2023-09-12T11:13:08;7.43;;;3.42;;
7013;SDS011;3547;50.774;12.918;2023-09-12T11:16:09;3.83;;;3.28;;
7013;SDS011;3547;50.774;12.918;2023-09-12T11:21:49;5.13;;;3.63;;
7013;SDS011;3547;50.774;12.918;2023-09-12T11:24:16;9.25;;;3.80;;
7013;SDS011;3547;50.774;12.918;2023-09-12T11:27:04;4.95;;;3.53;;
7013;SDS011;3547;50.774;12.918;2023-09-12T11:29:37;6.03;;;3.63;;
7013;SDS011;3547;50.774;12.918;2023-09-12T11:32:05;3.33;;;2.83;;
7013;SDS011;3547;50.774;12.918;2023-09-12T11:34:36;4.35;;;3.22;;
7013;SDS011;3547;50.774;12.918;2023-09-12T11:37:04;5.90;;;3.45;;
7013;SDS011;3547;50.774;12.918;2023-09-12T11:39:31;6.57;;;3.67;;
7013;SDS011;3547;50.774;12.918;2023-09-12T11:41:59;3.47;;;3.17;;
7013;SDS011;3547;50.774;12.918;2023-09-12T11:44:27;5.53;;;3.20;;
7013;SDS011;3547;50.774;12.918;2023-09-12T11:46:57;6.55;;;3.80;;
7013;SDS011;3547;50.774;12.918;2023-09-12T11:49:35;3.92;;;3.53;;
7013;SDS011;3547;50.774;12.918;2023-09-12T11:52:11;5.50;;;3.45;;
7013;SDS011;3547;50.774;12.918;2023-09-12T11:54:40;7.38;;;3.78;;
7013;SDS011;3547;50.774;12.918;2023-09-12T11:57:07;4.45;;;3.30;;
7013;SDS011;3547;50.774;12.918;2023-09-12T11:59:42;4.13;;;3.15;;
7013;SDS011;3547;50.774;12.918;2023-09-12T12:02:14;5.28;;;3.28;;
7013;SDS011;3547;50.774;12.918;2023-09-12T12:04:40;5.00;;;3.35;;
7013;SDS011;3547;50.774;12.918;2023-09-12T12:07:06;4.68;;;3.35;;
7013;SDS011;3547;50.774;12.918;2023-09-12T12:09:33;7.93;;;3.88;;
7013;SDS011;3547;50.774;12.918;2023-09-12T12:12:03;6.15;;;3.33;;
7013;SDS011;3547;50.774;12.918;2023-09-12T12:14:38;7.47;;;4.05;;
7013;SDS011;3547;50.774;12.918;2023-09-12T12:17:06;3.50;;;3.20;;
7013;SDS011;3547;50.774;12.918;2023-09-12T12:19:34;6.05;;;3.17;;
7013;SDS011;3547;50.774;12.918;2023-09-12T12:22:02;6.57;;;4.28;;
7013;SDS011;3547;50.774;12.918;2023-09-12T12:24:47;5.93;;;3.70;;
7013;SDS011;3547;50.774;12.918;2023-09-12T12:27:15;5.40;;;3.88;;
7013;SDS011;3547;50.774;12.918;2023-09-12T12:29:42;4.90;;;3.47;;
7013;SDS011;3547;50.774;12.918;2023-09-12T12:32:10;5.47;;;3.72;;
7013;SDS011;3547;50.774;12.918;2023-09-12T12:34:36;6.97;;;3.47;;
7013;SDS011;3547;50.774;12.918;2023-09-12T12:37:03;4.28;;;3.55;;
7013;SDS011;3547;50.774;12.918;2023-09-12T12:39:29;4.32;;;3.72;;
7013;SDS011;3547;50.774;12.918;2023-09-12T12:41:57;3.83;;;3.25;;
7013;SDS011;3547;50.774;12.918;2023-09-12T12:44:31;7.10;;;3.63;;
7013;SDS011;3547;50.774;12.918;2023-09-12T12:47:03;5.97;;;3.50;;
7013;SDS011;3547;50.774;12.918;2023-09-12T12:49:35;6.32;;;3.80;;
7013;SDS011;3547;50.774;12.918;2023-09-12T12:52:05;6.78;;;3.90;;
7013;SDS011;3547;50.774;12.918;2023-09-12T12:54:31;8.18;;;3.55;;
7013;SDS011;3547;50.774;12.918;2023-09-12T12:57:01;6.72;;;3.88;;
7013;SDS011;3547;50.774;12.918;2023-09-12T12:59:28;5.50;;;3.33;;
7013;SDS011;3547;50.774;12.918;2023-09-12T13:01:55;3.60;;;3.22;;
7013;SDS011;3547;50.774;12.918;2023-09-12T13:04:23;3.63;;;3.25;;
7013;SDS011;3547;50.774;12.918;2023-09-12T13:06:49;7.18;;;3.40;;
7013;SDS011;3547;50.774;12.918;2023-09-12T13:09:15;6.07;;;3.47;;
7013;SDS011;3547;50.774;12.918;2023-09-12T13:11:42;3.85;;;3.50;;
7013;SDS011;3547;50.774;12.918;2023-09-12T13:14:08;4.57;;;3.17;;
7013;SDS011;3547;50.774;12.918;2023-09-12T13:16:36;9.50;;;3.70;;
7013;SDS011;3547;50.774;12.918;2023-09-12T13:19:05;7.47;;;3.92;;
7013;SDS011;3547;50.774;12.918;2023-09-12T13:21:31;7.57;;;3.63;;
7013;SDS011;3547;50.774;12.918;2023-09-12T13:23:58;5.65;;;3.50;;
7013;SDS011;3547;50.774;12.918;2023-09-12T13:26:24;6.10;;;3.53;;
7013;SDS011;3547;50.774;12.918;2023-09-12T13:28:50;4.78;;;3.83;;
7013;SDS011;3547;50.774;12.918;2023-09-12T13:31:18;4.60;;;3.35;;
7013;SDS011;3547;50.774;12.918;2023-09-12T13:33:45;6.40;;;3.97;;
7013;SDS011;3547;50.774;12.918;2023-09-12T13:36:11;6.25;;;3.35;;
7013;SDS011;3547;50.774;12.918;2023-09-12T13:38:37;8.88;;;3.53;;
7013;SDS011;3547;50.774;12.918;2023-09-12T13:41:03;5.30;;;3.50;;
7013;SDS011;3547;50.774;12.918;2023-09-12T13:43:29;5.80;;;3.47;;
7013;SDS011;3547;50.774;12.918;2023-09-12T13:45:55;5.55;;;3.60;;
7013;SDS011;3547;50.774;12.918;2023-09-12T13:48:22;4.55;;;3.65;;
7013;SDS011;3547;50.774;12.918;2023-09-12T13:50:48;4.50;;;2.90;;
7013;SDS011;3547;50.774;12.918;2023-09-12T13:53:14;5.47;;;3.20;;
7013;SDS011;3547;50.774;12.918;2023-09-12T13:55:40;3.55;;;2.92;;
7013;SDS011;3547;50.774;12.918;2023-09-12T13:58:06;8.18;;;3.90;;
7013;SDS011;3547;50.774;12.918;2023-09-12T14:00:33;7.97;;;3.88;;
7013;SDS011;3547;50.774;12.918;2023-09-12T14:03:00;6.55;;;3.47;;
7013;SDS011;3547;50.774;12.918;2023-09-12T14:05:26;4.93;;;3.10;;
7013;SDS011;3547;50.774;12.918;2023-09-12T14:07:53;10.40;;;3.25;;
7013;SDS011;3547;50.774;12.918;2023-09-12T14:10:19;4.88;;;3.65;;
7013;SDS011;3547;50.774;12.918;2023-09-12T14:12:45;5.23;;;3.57;;
7013;SDS011;3547;50.774;12.918;2023-09-12T14:15:12;4.47;;;3.13;;
7013;SDS011;3547;50.774;12.918;2023-09-12T14:17:39;4.07;;;3.35;;
7013;SDS011;3547;50.774;12.918;2023-09-12T14:20:06;4.75;;;3.60;;
7013;SDS011;3547;50.774;12.918;2023-09-12T14:22:34;4.05;;;3.20;;
7013;SDS011;3547;50.774;12.918;2023-09-12T14:25:00;5.72;;;3.38;;
7013;SDS011;3547;50.774;12.918;2023-09-12T14:27:26;7.25;;;4.03;;
7013;SDS011;3547;50.774;12.918;2023-09-12T14:29:53;8.05;;;3.88;;
7013;SDS011;3547;50.774;12.918;2023-09-12T14:32:19;5.03;;;3.95;;
7013;SDS011;3547;50.774;12.918;2023-09-12T14:34:46;4.85;;;3.15;;
7013;SDS011;3547;50.774;12.918;2023-09-12T14:37:12;6.20;;;3.60;;
7013;SDS011;3547;50.774;12.918;2023-09-12T14:39:38;3.83;;;3.30;;
7013;SDS011;3547;50.774;12.918;2023-09-12T14:42:04;5.05;;;3.65;;
7013;SDS011;3547;50.774;12.918;2023-09-12T14:44:34;3.97;;;2.83;;
7013;SDS011;3547;50.774;12.918;2023-09-12T14:47:01;8.50;;;3.10;;
7013;SDS011;3547;50.774;12.918;2023-09-12T14:49:27;5.18;;;3.38;;
7013;SDS011;3547;50.774;12.918;2023-09-12T14:51:54;4.93;;;3.40;;
7013;SDS011;3547;50.774;12.918;2023-09-12T14:54:20;5.63;;;3.42;;
7013;SDS011;3547;50.774;12.918;2023-09-12T14:56:48;5.03;;;3.28;;
7013;SDS011;3547;50.774;12.918;2023-09-12T14:59:16;4.32;;;3.22;;
7013;SDS011;3547;50.774;12.918;2023-09-12T15:01:42;6.15;;;3.90;;
7013;SDS011;3547;50.774;12.918;2023-09-12T15:04:09;5.10;;;3.08;;
7013;SDS011;3547;50.774;12.918;2023-09-12T15:06:36;4.05;;;3.47;;
7013;SDS011;3547;50.774;12.918;2023-09-12T15:09:03;3.67;;;2.90;;
7013;SDS011;3547;50.774;12.918;2023-09-12T15:11:30;3.85;;;2.92;;
7013;SDS011;3547;50.774;12.918;2023-09-12T15:13:57;7.30;;;3.28;;
7013;SDS011;3547;50.774;12.918;2023-09-12T15:16:25;7.75;;;3.13;;
7013;SDS011;3547;50.774;12.918;2023-09-12T15:18:54;6.18;;;3.45;;
7013;SDS011;3547;50.774;12.918;2023-09-12T15:21:20;3.97;;;3.10;;
7013;SDS011;3547;50.774;12.918;2023-09-12T15:23:46;3.80;;;3.00;;
7013;SDS011;3547;50.774;12.918;2023-09-12T15:26:12;6.18;;;3.80;;
7013;SDS011;3547;50.774;12.918;2023-09-12T15:32:01;3.97;;;2.75;;
7013;SDS011;3547;50.774;12.918;2023-09-12T15:34:27;4.70;;;3.65;;
7013;SDS011;3547;50.774;12.918;2023-09-12T15:37:05;4.03;;;3.50;;
7013;SDS011;3547;50.774;12.918;2023-09-12T15:39:36;7.25;;;2.88;;